Time;durP1;ratioP1;P1;durP2;ratioP2;P2;SDS_P1;SDS_P2;PMS_P1;PMS_P2;Temp;Humidity;BMP_temperature;BMP_pressure;BME280_temperature;BME280_humidity;BME280_pressure;Samples;Min_cycle;Max_cycle;Signal;HPM_P1;HPM_P2
2022/08/28 09:29:26;;;;;;;632.13;476.43;;;22.00;99.90;;;;;;5088710;27;20537;-85
2022/08/28 09:31:53;;;;;;;;;;;22.10;99.90;;;;;;5067468;28;20180;-87
2022/08/28 09:34:27;;;;;;;627.80;456.80;;;22.20;1.00;;;;;;5066741;28;20377;-85
2022/08/28 09:36:55;;;;;;;;;;;22.40;99.90;;;;;;5061184;28;20196;-86
2022/08/28 09:39:23;;;;;;;;;;;22.60;99.90;;;;;;5066028;28;19939;-86
2022/08/28 09:44:58;;;;;;;645.87;512.90;;;22.90;99.90;;;;;;5064885;28;20362;-87
2022/08/28 09:47:47;;;;;;;649.80;522.67;;;23.10;1.00;;;;;;5064739;28;20677;-88
2022/08/28 09:50:34;;;;;;;649.30;527.80;;;23.20;99.90;;;;;;5067511;28;20198;-85
2022/08/28 09:53:15;;;;;;;654.97;542.50;;;;;;;;;;5062073;28;20189;-86
2022/08/28 09:55:42;;;;;;;;;;;;;;;;;;5060513;28;20470;-88
2022/08/28 09:58:09;;;;;;;;;;;;;;;;;;5063799;28;19971;-87
2022/08/28 10:00:40;;;;;;;;;;;23.30;99.90;;;;;;5061300;28;19974;-89
2022/08/28 10:03:14;;;;;;;648.93;522.73;;;23.60;99.90;;;;;;5053166;28;20249;-87
2022/08/28 10:05:51;;;;;;;656.20;549.63;;;23.70;99.90;;;;;;5060780;28;20192;-90
2022/08/28 10:08:31;;;;;;;654.80;547.03;;;23.80;1.00;;;;;;5064279;28;20699;-87
2022/08/28 10:11:18;;;;;;;659.30;555.13;;;23.80;1.00;;;;;;5068473;28;20541;-88
2022/08/28 10:13:53;;;;;;;642.57;496.47;;;23.80;1.00;;;;;;5064695;28;20185;-87
2022/08/28 10:16:30;;;;;;;645.60;518.03;;;23.70;99.90;;;;;;5055368;28;20189;-87
2022/08/28 10:19:09;;;;;;;640.53;465.50;;;23.60;99.90;;;;;;5068162;28;20196;-88
2022/08/28 10:21:45;;;;;;;595.23;282.53;;;23.50;99.90;;;;;;5068435;28;20246;-89
2022/08/28 10:24:31;;;;;;;592.57;267.70;;;23.30;44.50;;;;;;5061699;28;20234;-87
2022/08/28 10:27:08;;;;;;;630.30;461.27;;;23.10;1.00;;;;;;5056986;28;20243;-89
2022/08/28 10:29:48;;;;;;;673.53;578.40;;;22.90;1.00;;;;;;5056555;28;20195;-84
2022/08/28 10:32:42;;;;;;;664.30;550.00;;;22.60;1.00;;;;;;5067697;28;20188;-86
2022/08/28 10:35:14;;;;;;;670.90;570.07;;;22.40;97.20;;;;;;5064538;28;20189;-86
2022/08/28 10:37:51;;;;;;;668.37;540.77;;;22.20;99.90;;;;;;5067984;28;20512;-86
2022/08/28 10:40:24;;;;;;;658.63;493.03;;;22.10;99.90;;;;;;5056158;28;20193;-86
2022/08/28 10:42:59;;;;;;;664.83;533.57;;;21.90;1.00;;;;;;5054916;28;20193;-89
2022/08/28 10:45:27;;;;;;;650.47;487.87;;;21.80;1.00;;;;;;5054674;28;20684;-86
2022/08/28 10:48:00;;;;;;;658.37;521.33;;;21.70;1.00;;;;;;5040132;28;20740;-89
2022/08/28 10:50:31;;;;;;;660.77;519.57;;;21.60;1.00;;;;;;5043161;28;20197;-87
2022/08/28 10:53:06;;;;;;;653.70;498.90;;;21.60;99.90;;;;;;5054633;28;20193;-89
2022/08/28 10:55:39;;;;;;;660.97;526.90;;;21.50;99.90;;;;;;5042619;28;20267;-88
2022/08/28 10:58:08;;;;;;;654.53;494.40;;;21.40;1.00;;;;;;5039063;28;20231;-88
2022/08/28 11:00:36;;;;;;;664.00;536.63;;;21.40;1.00;;;;;;5046576;28;20192;-86
2022/08/28 11:03:09;;;;;;;671.23;559.07;;;21.40;1.00;;;;;;5053953;28;20189;-85
2022/08/28 11:05:41;;;;;;;661.10;519.80;;;21.30;24.10;;;;;;5054381;28;20192;-86
2022/08/28 11:08:13;;;;;;;586.63;268.10;;;21.30;99.90;;;;;;5039617;28;20219;-86
2022/08/28 11:10:49;;;;;;;592.90;294.43;;;21.20;99.90;;;;;;5052412;28;20185;-86
2022/08/28 11:13:49;;;;;;;622.97;319.57;;;21.20;99.90;;;;;;5038055;28;20303;-85
2022/08/28 11:16:22;;;;;;;640.37;329.23;;;21.20;1.00;;;;;;5052335;28;20616;-84
2022/08/28 11:19:14;;;;;;;667.33;352.07;;;21.10;99.90;;;;;;5053085;28;20598;-87
2022/08/28 11:21:47;;;;;;;666.13;349.77;;;21.10;1.00;;;;;;5052053;28;20527;-87
2022/08/28 11:24:42;;;;;;;616.27;330.60;;;21.10;1.00;;;;;;5044150;28;20194;-86
2022/08/28 11:27:28;;;;;;;632.30;420.90;;;21.10;99.90;;;;;;5033796;28;20683;-86
2022/08/28 11:30:34;;;;;;;657.47;491.07;;;21.00;99.90;;;;;;5046955;28;20204;-86
2022/08/28 11:33:04;;;;;;;641.03;363.50;;;21.00;1.00;;;;;;5045935;28;20193;-85
2022/08/28 11:35:41;;;;;;;646.73;341.97;;;21.00;1.00;;;;;;5053104;28;20193;-85
2022/08/28 11:38:09;;;;;;;642.30;332.83;;;21.00;1.00;;;;;;5053818;28;20644;-86
2022/08/28 11:40:56;;;;;;;302.53;152.53;;;21.10;99.90;;;;;;5053037;28;20693;-85
2022/08/28 11:43:38;;;;;;;308.33;152.77;;;21.10;99.90;;;;;;5053334;28;20193;-87
2022/08/28 11:46:12;;;;;;;674.77;325.37;;;21.20;99.90;;;;;;5041408;28;20193;-85
2022/08/28 11:48:51;;;;;;;304.70;160.80;;;21.20;44.00;;;;;;5051806;28;20208;-85
2022/08/28 11:51:39;;;;;;;660.27;325.07;;;21.20;1.00;;;;;;5052995;28;20201;-86
2022/08/28 11:54:24;;;;;;;669.03;319.33;;;21.20;99.90;;;;;;5038681;28;20247;-86
2022/08/28 11:57:02;;;;;;;678.87;320.70;;;21.20;99.90;;;;;;5040966;28;20216;-86
2022/08/28 11:59:47;;;;;;;309.83;143.13;;;21.30;99.90;;;;;;5046411;28;20193;-87
2022/08/28 12:03:02;;;;;;;673.47;313.90;;;21.40;1.00;;;;;;5040623;28;20239;-86
2022/08/28 12:05:48;;;;;;;679.87;313.10;;;21.50;1.00;;;;;;5049962;28;20186;-88
2022/08/28 12:08:50;;;;;;;31.83;28.80;;;21.50;99.90;;;;;;5051185;28;20571;-88
2022/08/28 12:11:49;;;;;;;25.27;22.93;;;21.50;99.90;;;;;;5040652;28;20199;-88
2022/08/28 12:15:01;;;;;;;26.40;23.67;;;21.50;1.00;;;;;;5050872;28;20193;-87
2022/08/28 12:17:50;;;;;;;26.60;23.90;;;21.60;1.00;;;;;;5051788;28;20193;-86
2022/08/28 12:20:39;;;;;;;26.73;23.43;;;21.70;1.00;;;;;;5050873;28;20282;-87
2022/08/28 12:23:31;;;;;;;23.50;21.20;;;21.70;1.00;;;;;;5040911;28;20221;-86
2022/08/28 12:26:01;;;;;;;25.97;23.43;;;21.70;99.90;;;;;;5027858;28;20193;-86
2022/08/28 12:28:30;;;;;;;24.93;22.53;;;21.70;99.90;;;;;;5052293;28;20224;-88
2022/08/28 12:31:13;;;;;;;26.57;24.07;;;21.70;1.00;;;;;;5051891;28;20250;-86
2022/08/28 12:33:48;;;;;;;25.60;23.10;;;21.70;1.00;;;;;;5052863;28;20238;-86
2022/08/28 12:36:25;;;;;;;31.20;26.63;;;21.80;1.00;;;;;;5051977;28;20267;-87
2022/08/28 12:38:54;;;;;;;23.90;21.63;;;21.90;1.00;;;;;;5052315;28;20279;-86
2022/08/28 12:41:23;;;;;;;30.83;27.57;;;22.00;99.90;;;;;;5051714;28;20189;-88
2022/08/28 12:43:55;;;;;;;25.00;22.70;;;22.20;1.00;;;;;;5052555;28;20200;-87
2022/08/28 12:46:28;;;;;;;24.27;20.93;;;22.40;1.00;;;;;;5052312;28;20185;-86
2022/08/28 12:49:00;;;;;;;22.73;20.37;;;22.40;99.90;;;;;;5037965;28;20214;-86
2022/08/28 12:51:29;;;;;;;21.93;19.73;;;22.40;1.00;;;;;;5052850;28;20193;-86
2022/08/28 12:53:58;;;;;;;32.13;28.27;;;22.40;1.00;;;;;;5050741;28;20189;-87
2022/08/28 12:56:28;;;;;;;24.33;21.83;;;22.30;99.90;;;;;;5039629;28;20200;-87
2022/08/28 12:58:56;;;;;;;24.27;22.20;;;22.30;1.00;;;;;;5046085;28;20189;-87
2022/08/28 13:01:30;;;;;;;23.30;21.30;;;22.20;1.00;;;;;;5037628;28;20194;-86
2022/08/28 13:04:02;;;;;;;26.20;23.50;;;22.10;1.00;;;;;;5052084;28;20321;-87
2022/08/28 13:06:32;;;;;;;23.20;21.10;;;22.00;99.90;;;;;;5051710;28;20610;-86
2022/08/28 13:09:03;;;;;;;22.30;20.43;;;22.00;99.90;;;;;;5051386;28;20251;-87
2022/08/28 13:11:34;;;;;;;23.83;21.90;;;21.90;99.90;;;;;;5052463;28;20197;-86
2022/08/28 13:14:03;;;;;;;22.40;20.30;;;21.90;99.90;;;;;;5050105;28;20246;-87
2022/08/28 13:16:39;;;;;;;21.40;19.50;;;21.90;99.90;;;;;;5052158;28;20205;-88
2022/08/28 13:19:26;;;;;;;21.67;18.90;;;21.90;1.00;;;;;;5039625;28;20197;-88
2022/08/28 13:21:59;;;;;;;15.43;13.93;;;21.80;99.90;;;;;;5051591;28;20231;-87
2022/08/28 13:24:39;;;;;;;21.40;14.07;;;21.80;99.90;;;;;;5052331;28;20199;-88
2022/08/28 13:27:17;;;;;;;17.53;15.70;;;21.80;1.00;;;;;;5051498;28;20192;-86
2022/08/28 13:29:57;;;;;;;17.73;16.10;;;21.70;1.00;;;;;;5042106;28;20215;-86
2022/08/28 13:32:24;;;;;;;18.27;16.40;;;21.60;99.90;;;;;;5049681;28;20231;-88
2022/08/28 13:35:31;;;;;;;15.70;14.37;;;21.60;99.90;;;;;;5051691;28;20197;-87
2022/08/28 13:38:00;;;;;;;24.33;22.20;;;21.50;99.90;;;;;;5044443;28;20226;-87
2022/08/28 13:40:30;;;;;;;20.77;19.07;;;21.50;40.90;;;;;;5045352;28;20197;-86
2022/08/28 13:43:01;;;;;;;19.00;17.43;;;21.40;99.90;;;;;;5038316;28;20653;-87
2022/08/28 13:45:28;;;;;;;18.87;17.23;;;21.30;63.50;;;;;;5051848;28;20192;-87
2022/08/28 13:47:55;;;;;;;19.93;18.37;;;21.30;99.90;;;;;;5040358;28;20193;-86
2022/08/28 13:50:23;;;;;;;20.87;19.23;;;21.30;91.50;;;;;;5051472;28;20579;-87
2022/08/28 13:52:51;;;;;;;20.37;18.77;;;21.30;99.90;;;;;;5045598;28;20650;-87
2022/08/28 13:55:20;;;;;;;19.07;17.60;;;21.30;99.90;;;;;;5043612;28;20790;-86
2022/08/28 13:57:47;;;;;;;16.67;15.37;;;21.30;99.90;;;;;;5049672;28;20254;-89
2022/08/28 14:00:16;;;;;;;16.10;14.87;;;21.30;99.90;;;;;;5046151;28;20204;-86
2022/08/28 14:05:29;;;;;;;20.00;18.63;;;21.30;99.90;;;;;;5051427;28;20195;-87
2022/08/28 14:07:56;;;;;;;18.40;16.93;;;21.30;99.90;;;;;;5051408;28;20197;-86
2022/08/28 14:10:23;;;;;;;19.93;18.30;;;21.20;99.90;;;;;;5042861;28;20563;-87
2022/08/28 14:12:50;;;;;;;21.40;19.87;;;21.20;99.90;;;;;;5046453;28;20258;-89
2022/08/28 14:15:17;;;;;;;19.30;17.97;;;21.30;99.90;;;;;;5043044;28;20672;-89
2022/08/28 14:17:45;;;;;;;24.77;22.70;;;21.30;99.90;;;;;;5053684;28;20201;-87
2022/08/28 14:20:12;;;;;;;24.97;23.23;;;21.30;99.90;;;;;;5052659;28;20200;-87
2022/08/28 14:22:41;;;;;;;24.30;22.53;;;21.30;99.90;;;;;;5055011;28;20290;-86
2022/08/28 14:25:09;;;;;;;21.67;19.73;;;21.30;99.90;;;;;;5053073;28;20239;-86
2022/08/28 14:27:36;;;;;;;20.53;19.10;;;21.30;99.90;;;;;;5055229;28;20229;-88
2022/08/28 14:30:05;;;;;;;22.93;20.87;;;21.20;99.90;;;;;;5054394;28;20563;-87
2022/08/28 14:32:32;;;;;;;21.03;19.57;;;21.30;1.00;;;;;;5045609;28;20194;-87
2022/08/28 14:34:59;;;;;;;25.03;23.13;;;21.30;99.90;;;;;;5049538;28;20196;-87
2022/08/28 14:37:27;;;;;;;29.47;27.33;;;21.30;99.90;;;;;;5035546;28;20200;-87
2022/08/28 14:39:55;;;;;;;29.53;27.63;;;21.30;99.90;;;;;;5049007;28;20270;-88
2022/08/28 14:42:24;;;;;;;22.90;20.80;;;21.40;1.00;;;;;;5054749;28;20201;-86
2022/08/28 14:44:51;;;;;;;21.30;19.17;;;21.50;1.00;;;;;;5054476;28;20201;-88
2022/08/28 14:47:18;;;;;;;19.57;18.17;;;21.60;1.00;;;;;;5054312;28;20205;-86
2022/08/28 14:49:45;;;;;;;15.47;14.10;;;21.80;1.00;;;;;;5054941;28;20562;-87
2022/08/28 14:52:12;;;;;;;18.07;16.43;;;22.00;1.00;;;;;;5054089;28;20201;-86
2022/08/28 14:54:40;;;;;;;17.10;15.17;;;22.10;1.00;;;;;;5054763;28;20251;-87
2022/08/28 14:57:10;;;;;;;18.73;16.13;;;22.30;99.90;;;;;;5055287;28;20227;-89
2022/08/28 14:59:38;;;;;;;15.60;13.07;;;22.50;99.90;;;;;;5054475;28;20237;-87
2022/08/28 15:02:05;;;;;;;17.70;15.83;;;22.70;57.30;;;;;;5054761;28;20228;-86
2022/08/28 15:04:36;;;;;;;17.55;14.80;;;23.00;1.00;;;;;;5053850;28;20582;-89
2022/08/28 15:07:09;;;;;;;15.47;13.80;;;23.20;1.00;;;;;;5046349;28;20318;-85
2022/08/28 15:09:37;;;;;;;19.40;15.90;;;23.20;1.00;;;;;;5056499;28;20216;-89
2022/08/28 15:12:05;;;;;;;19.93;17.03;;;23.20;1.00;;;;;;5062511;28;20217;-87
2022/08/28 15:14:34;;;;;;;15.70;14.17;;;23.20;99.90;;;;;;5061287;28;20225;-85
2022/08/28 15:17:01;;;;;;;16.70;14.57;;;23.10;1.00;;;;;;5053025;28;20190;-86
2022/08/28 15:19:28;;;;;;;21.57;14.77;;;23.10;99.90;;;;;;5060142;28;20217;-87
2022/08/28 15:21:56;;;;;;;16.73;13.33;;;23.20;99.90;;;;;;5050567;28;20531;-86
2022/08/28 15:24:25;;;;;;;17.37;12.70;;;23.20;99.90;;;;;;5047613;28;20204;-88
2022/08/28 15:26:52;;;;;;;16.73;14.53;;;23.10;99.90;;;;;;5045757;28;20200;-87
2022/08/28 15:29:20;;;;;;;17.67;14.13;;;23.20;99.90;;;;;;5053906;28;20192;-87
2022/08/28 15:31:50;;;;;;;16.33;13.53;;;23.20;99.90;;;;;;5045520;28;20199;-88
2022/08/28 15:34:19;;;;;;;14.27;12.73;;;23.20;99.90;;;;;;5053800;28;20192;-87
2022/08/28 15:36:47;;;;;;;13.93;12.37;;;23.20;99.90;;;;;;5042196;28;20598;-85
2022/08/28 15:42:00;;;;;;;15.03;12.93;;;23.30;99.90;;;;;;5045553;28;20274;-88
2022/08/28 15:44:28;;;;;;;19.43;13.37;;;23.30;72.30;;;;;;5045493;28;20216;-86
2022/08/28 15:46:59;;;;;;;15.00;12.73;;;23.30;99.90;;;;;;5047316;28;20535;-86
2022/08/28 15:49:28;;;;;;;17.90;14.23;;;23.30;1.00;;;;;;5039899;28;20239;-86
2022/08/28 15:51:55;;;;;;;14.50;11.93;;;23.30;1.00;;;;;;5052927;28;20251;-88
2022/08/28 15:54:24;;;;;;;18.83;13.57;;;23.30;1.00;;;;;;5052670;28;20646;-86
2022/08/28 15:56:52;;;;;;;13.03;11.63;;;23.20;1.00;;;;;;5053392;28;20205;-86
2022/08/28 15:59:20;;;;;;;12.47;11.17;;;23.30;1.00;;;;;;5053368;28;20213;-86
2022/08/28 16:01:47;;;;;;;21.10;16.60;;;23.20;1.00;;;;;;5035830;28;20202;-88
2022/08/28 16:04:16;;;;;;;15.87;14.10;;;23.30;1.00;;;;;;5042488;28;20235;-88
2022/08/28 16:06:44;;;;;;;16.70;12.63;;;23.20;1.00;;;;;;5052403;28;20700;-88
2022/08/28 16:09:11;;;;;;;18.47;15.00;;;23.30;1.00;;;;;;5053397;28;20197;-86
2022/08/28 16:11:39;;;;;;;15.30;13.30;;;23.30;1.00;;;;;;5052605;28;20204;-86
2022/08/28 16:14:07;;;;;;;12.83;11.40;;;23.20;1.00;;;;;;5052878;28;20284;-86
2022/08/28 16:16:34;;;;;;;15.63;14.00;;;23.20;1.00;;;;;;5039870;28;20193;-88
2022/08/28 16:19:01;;;;;;;14.67;13.20;;;23.20;1.00;;;;;;5052182;28;20185;-86
2022/08/28 16:21:30;;;;;;;12.87;11.07;;;23.20;1.00;;;;;;5053660;28;20276;-87
2022/08/28 16:23:57;;;;;;;13.67;12.13;;;23.10;1.00;;;;;;5034668;28;20199;-86
2022/08/28 16:26:24;;;;;;;14.70;12.60;;;23.00;99.90;;;;;;5042576;28;20208;-87
2022/08/28 16:28:51;;;;;;;15.17;13.50;;;23.00;1.00;;;;;;5038868;28;20241;-88
2022/08/28 16:31:19;;;;;;;14.83;13.00;;;22.90;1.00;;;;;;5052470;28;20189;-86
2022/08/28 16:33:46;;;;;;;12.87;11.30;;;22.80;1.00;;;;;;5051825;28;20255;-86
2022/08/28 16:36:14;;;;;;;12.23;11.03;;;22.80;1.00;;;;;;5045946;28;20244;-86
2022/08/28 16:38:45;;;;;;;13.97;12.53;;;22.70;1.00;;;;;;5045808;28;20192;-86
2022/08/28 16:41:15;;;;;;;14.97;13.50;;;22.70;1.00;;;;;;5052284;28;20229;-88
2022/08/28 16:43:42;;;;;;;16.03;14.37;;;22.70;1.00;;;;;;5039866;28;20251;-87
2022/08/28 16:46:11;;;;;;;18.23;14.87;;;22.70;1.00;;;;;;5045991;28;20193;-87
2022/08/28 16:48:38;;;;;;;15.40;13.93;;;22.70;1.00;;;;;;5032918;28;20196;-89
2022/08/28 16:51:06;;;;;;;14.97;13.43;;;22.70;1.00;;;;;;5051547;28;20713;-87
2022/08/28 16:53:33;;;;;;;14.80;13.33;;;22.60;1.00;;;;;;5052737;28;20204;-86
2022/08/28 16:56:02;;;;;;;15.30;13.83;;;22.60;1.00;;;;;;5048014;28;20205;-87
2022/08/28 16:58:29;;;;;;;16.67;14.83;;;22.50;1.00;;;;;;5041886;28;20193;-86
2022/08/28 17:00:56;;;;;;;17.17;15.63;;;22.50;1.00;;;;;;5052101;28;20240;-86
2022/08/28 17:03:23;;;;;;;16.50;14.90;;;22.40;1.00;;;;;;5051721;28;20287;-86
2022/08/28 17:05:50;;;;;;;16.77;15.27;;;22.40;1.00;;;;;;5052121;28;20226;-89
2022/08/28 17:08:18;;;;;;;19.10;17.43;;;22.30;1.00;;;;;;5051814;28;20189;-86
2022/08/28 17:10:45;;;;;;;18.03;16.53;;;22.30;1.00;;;;;;5044202;28;20193;-88
2022/08/28 17:13:13;;;;;;;19.73;18.03;;;22.20;1.00;;;;;;5039940;28;20208;-86
2022/08/28 17:15:40;;;;;;;20.17;18.50;;;22.10;55.80;;;;;;5045565;28;20200;-86
2022/08/28 17:18:09;;;;;;;23.23;21.03;;;22.10;99.90;;;;;;5051292;28;20567;-85
2022/08/28 17:23:22;;;;;;;24.20;21.53;;;21.90;99.90;;;;;;5050520;28;20200;-86
2022/08/28 17:25:49;;;;;;;19.63;18.03;;;21.80;99.90;;;;;;5048148;28;20190;-86
2022/08/28 17:28:17;;;;;;;21.83;19.83;;;21.70;1.00;;;;;;5048858;28;20566;-86
2022/08/28 17:30:44;;;;;;;21.70;20.17;;;21.60;99.90;;;;;;5047348;28;20193;-86
2022/08/28 17:33:12;;;;;;;20.37;18.87;;;21.60;1.00;;;;;;5051222;28;20239;-86
2022/08/28 17:35:39;;;;;;;21.83;20.03;;;21.50;1.00;;;;;;5051560;28;20197;-86
2022/08/28 17:38:06;;;;;;;20.00;18.47;;;21.40;1.00;;;;;;5051245;28;20193;-86
2022/08/28 17:40:33;;;;;;;23.93;22.10;;;21.40;1.00;;;;;;5046996;28;20212;-86
2022/08/28 17:43:01;;;;;;;27.43;25.50;;;21.30;1.00;;;;;;5043391;28;20195;-87
2022/08/28 17:45:30;;;;;;;30.97;28.73;;;21.20;1.00;;;;;;5039716;28;20244;-87
2022/08/28 17:47:57;;;;;;;27.50;25.43;;;21.10;1.00;;;;;;5040597;28;20564;-86
2022/08/28 17:50:24;;;;;;;26.13;24.47;;;21.00;1.00;;;;;;5046736;28;20189;-86
2022/08/28 17:52:51;;;;;;;17.00;15.60;;;21.00;1.00;;;;;;5044783;28;20189;-87
2022/08/28 17:55:19;;;;;;;14.67;13.13;;;20.90;99.90;;;;;;5054621;28;20640;-87
2022/08/28 17:57:46;;;;;;;18.77;16.90;;;20.80;99.90;;;;;;5054091;28;20178;-86
2022/08/28 18:00:15;;;;;;;19.97;18.07;;;20.80;99.90;;;;;;5048667;28;20218;-87
2022/08/28 18:02:43;;;;;;;20.27;18.27;;;20.70;99.90;;;;;;5045350;28;20197;-84
2022/08/28 18:05:13;;;;;;;19.47;17.50;;;20.70;99.90;;;;;;5054010;28;20189;-84
2022/08/28 18:07:40;;;;;;;16.87;15.17;;;20.60;99.90;;;;;;5054408;28;20243;-84
2022/08/28 18:10:09;;;;;;;15.03;13.20;;;20.50;99.90;;;;;;5053227;28;20776;-84
2022/08/28 18:12:36;;;;;;;14.37;11.83;;;20.50;1.00;;;;;;5046603;28;20277;-83
2022/08/28 18:15:03;;;;;;;13.40;11.30;;;20.40;1.00;;;;;;5048517;28;20201;-85
2022/08/28 18:17:30;;;;;;;13.00;11.30;;;20.40;1.00;;;;;;5052827;28;20258;-85
2022/08/28 18:19:59;;;;;;;15.33;13.80;;;20.40;1.00;;;;;;5043708;28;20228;-85
2022/08/28 18:22:27;;;;;;;16.40;15.10;;;20.40;1.00;;;;;;5048328;28;20890;-85
2022/08/28 18:24:53;;;;;;;18.57;17.13;;;20.40;99.90;;;;;;5053579;28;20558;-85
2022/08/28 18:27:25;;;;;;;20.30;18.90;;;20.40;99.90;;;;;;5045457;28;20209;-87
2022/08/28 18:29:55;;;;;;;20.83;19.47;;;20.40;99.90;;;;;;5040171;28;20243;-87
2022/08/28 18:32:25;;;;;;;21.97;20.53;;;20.40;99.90;;;;;;5042921;28;20462;-89
2022/08/28 18:34:52;;;;;;;25.03;23.47;;;20.40;99.90;;;;;;5037704;28;20201;-84
2022/08/28 18:37:20;;;;;;;23.20;21.70;;;20.30;99.90;;;;;;5052712;28;20193;-86
2022/08/28 18:39:48;;;;;;;25.57;23.97;;;20.30;1.00;;;;;;5037295;28;20239;-85
2022/08/28 18:42:15;;;;;;;31.10;29.23;;;20.20;77.80;;;;;;5035112;28;20225;-85
2022/08/28 18:44:42;;;;;;;38.87;36.57;;;20.20;99.90;;;;;;5040632;28;20193;-85
2022/08/28 18:47:09;;;;;;;45.13;42.40;;;20.20;99.90;;;;;;5044024;28;20196;-84
2022/08/28 18:49:36;;;;;;;42.50;40.07;;;20.10;11.30;;;;;;5045349;28;20188;-86
2022/08/28 18:52:03;;;;;;;43.90;41.30;;;20.10;1.00;;;;;;5045211;28;20193;-84
2022/08/28 18:54:32;;;;;;;44.03;41.47;;;20.10;1.00;;;;;;5053104;28;20200;-86
2022/08/28 18:56:59;;;;;;;46.13;43.10;;;20.20;1.00;;;;;;5043376;28;20209;-86
2022/08/28 18:59:30;;;;;;;41.47;38.97;;;20.20;1.00;;;;;;5044105;28;20553;-86
2022/08/28 19:01:57;;;;;;;38.00;35.60;;;20.20;99.90;;;;;;5039859;28;20769;-87
2022/08/28 19:04:24;;;;;;;36.73;34.57;;;20.20;1.00;;;;;;5040022;28;20212;-86
2022/08/28 19:06:51;;;;;;;36.03;33.87;;;20.20;1.00;;;;;;5036966;28;20202;-84
2022/08/28 19:09:18;;;;;;;40.77;38.40;;;20.20;1.00;;;;;;5034111;28;20200;-87
2022/08/28 19:11:47;;;;;;;46.47;43.53;;;20.20;47.90;;;;;;5033679;28;20201;-85
2022/08/28 19:14:14;;;;;;;54.40;50.73;;;20.10;1.00;;;;;;5038304;28;20201;-85
2022/08/28 19:16:41;;;;;;;48.37;45.57;;;20.00;99.90;;;;;;5051929;28;20193;-84
2022/08/28 19:19:08;;;;;;;44.33;41.73;;;20.00;99.90;;;;;;5058610;28;20247;-87
2022/08/28 19:21:35;;;;;;;33.63;31.50;;;19.90;99.90;;;;;;5044304;28;20224;-87
2022/08/28 19:24:03;;;;;;;36.30;34.17;;;19.80;54.50;;;;;;5039782;28;20237;-86
2022/08/28 19:26:32;;;;;;;40.50;37.63;;;19.70;1.00;;;;;;5036504;28;20194;-86
2022/08/28 19:29:01;;;;;;;35.20;32.67;;;19.60;57.80;;;;;;5037498;28;20221;-85
2022/08/28 19:31:29;;;;;;;33.90;31.67;;;19.60;32.30;;;;;;5045739;28;20206;-86
2022/08/28 19:33:57;;;;;;;27.73;25.60;;;19.40;1.00;;;;;;5042940;28;20193;-86
2022/08/28 19:36:25;;;;;;;18.07;16.40;;;19.40;23.30;;;;;;5051614;28;20200;-84
2022/08/28 19:38:53;;;;;;;15.47;12.70;;;19.40;99.90;;;;;;5055480;28;20201;-85
2022/08/28 19:41:21;;;;;;;13.93;12.30;;;19.40;85.30;;;;;;5044517;28;20224;-86
2022/08/28 19:43:49;;;;;;;14.30;12.40;;;19.40;99.90;;;;;;5048400;28;20185;-84
2022/08/28 19:46:18;;;;;;;18.20;15.00;;;19.40;99.90;;;;;;5055627;28;20197;-85
2022/08/28 19:48:45;;;;;;;16.17;14.47;;;19.40;1.00;;;;;;5044332;28;20200;-86
2022/08/28 19:51:13;;;;;;;16.53;12.53;;;19.40;1.00;;;;;;5055765;28;20204;-85
2022/08/28 19:53:41;;;;;;;15.63;13.63;;;19.40;1.00;;;;;;5048505;28;20196;-86
2022/08/28 19:56:09;;;;;;;15.60;13.63;;;19.40;1.00;;;;;;5052015;28;20227;-85
2022/08/28 19:58:36;;;;;;;20.23;18.23;;;19.40;1.00;;;;;;5045537;28;20190;-86
2022/08/28 20:01:03;;;;;;;19.83;13.57;;;19.30;1.00;;;;;;5046255;28;20224;-84
2022/08/28 20:03:32;;;;;;;19.03;14.67;;;19.30;1.00;;;;;;5052775;28;20197;-85
2022/08/28 20:06:02;;;;;;;18.67;16.80;;;19.30;1.00;;;;;;5042554;28;20197;-86
2022/08/28 20:08:30;;;;;;;17.13;15.43;;;19.30;1.00;;;;;;5036125;28;20193;-85
2022/08/28 20:10:57;;;;;;;15.00;13.27;;;19.20;1.00;;;;;;5050551;28;20189;-85
2022/08/28 20:13:25;;;;;;;20.43;18.53;;;19.20;1.00;;;;;;5047643;28;20196;-86
2022/08/28 20:15:52;;;;;;;14.40;12.73;;;19.10;1.00;;;;;;5039862;28;20193;-87
2022/08/28 20:18:20;;;;;;;14.43;13.00;;;19.10;1.00;;;;;;5039552;28;20696;-85
2022/08/28 20:20:50;;;;;;;15.97;14.47;;;19.00;1.00;;;;;;5051822;28;20224;-85
2022/08/28 20:23:18;;;;;;;18.97;17.50;;;18.90;99.90;;;;;;5049426;28;20202;-85
2022/08/28 20:25:46;;;;;;;24.13;22.47;;;18.80;1.00;;;;;;5050334;28;20276;-85
2022/08/28 20:28:14;;;;;;;17.10;15.50;;;18.70;1.00;;;;;;5044400;28;20335;-86
2022/08/28 20:30:41;;;;;;;16.50;14.93;;;18.60;1.00;;;;;;5045238;28;20211;-86
2022/08/28 20:33:09;;;;;;;65.97;17.07;;;18.60;1.00;;;;;;5049824;28;20536;-84
2022/08/28 20:35:36;;;;;;;20.83;19.20;;;18.50;1.00;;;;;;5049713;28;20595;-83
2022/08/28 20:38:05;;;;;;;25.93;24.00;;;18.40;1.00;;;;;;5051073;28;20208;-84
2022/08/28 20:40:32;;;;;;;19.03;17.33;;;18.30;1.00;;;;;;5040186;28;20280;-86
2022/08/28 20:42:59;;;;;;;15.93;14.40;;;18.20;1.00;;;;;;5035648;28;20650;-84
2022/08/28 20:45:27;;;;;;;18.80;17.10;;;18.20;1.00;;;;;;5037483;28;20193;-85
2022/08/28 20:47:54;;;;;;;21.17;19.40;;;18.10;1.00;;;;;;5043853;28;20584;-85
2022/08/28 20:50:21;;;;;;;19.70;17.90;;;18.10;1.00;;;;;;5046366;28;20201;-85
2022/08/28 20:52:48;;;;;;;21.70;19.70;;;18.00;1.00;;;;;;5052150;28;20197;-85
2022/08/28 20:55:17;;;;;;;18.20;16.47;;;17.90;1.00;;;;;;5051759;28;20657;-85
2022/08/28 20:57:44;;;;;;;16.37;14.77;;;17.80;1.00;;;;;;5052565;28;20190;-86
2022/08/28 21:00:12;;;;;;;26.90;25.03;;;17.80;1.00;;;;;;5052597;28;20193;-86
2022/08/28 21:02:39;;;;;;;27.20;25.33;;;17.70;1.00;;;;;;5052098;28;20236;-85
2022/08/28 21:05:07;;;;;;;20.83;19.20;;;17.60;1.00;;;;;;5052785;28;20204;-86
2022/08/28 21:07:34;;;;;;;18.77;17.27;;;17.60;1.00;;;;;;5052314;28;20250;-86
2022/08/28 21:10:02;;;;;;;14.67;13.17;;;17.50;46.60;;;;;;5052123;28;20193;-87
2022/08/28 21:12:31;;;;;;;17.20;15.67;;;17.50;99.90;;;;;;5051765;28;20246;-85
2022/08/28 21:14:58;;;;;;;15.87;14.30;;;17.40;99.90;;;;;;5038586;28;20200;-85
2022/08/28 21:17:25;;;;;;;16.70;15.27;;;17.30;99.90;;;;;;5052095;28;20197;-85
2022/08/28 21:19:52;;;;;;;15.23;13.67;;;17.30;99.90;;;;;;5052017;28;20534;-85
2022/08/28 21:22:19;;;;;;;18.90;17.10;;;17.20;99.90;;;;;;5062700;28;20220;-85
2022/08/28 21:24:46;;;;;;;18.17;16.40;;;17.20;99.90;;;;;;5054662;28;20552;-85
2022/08/28 21:27:13;;;;;;;17.57;15.83;;;17.10;99.90;;;;;;5051948;28;20221;-86
2022/08/28 21:29:42;;;;;;;17.63;15.87;;;17.10;99.90;;;;;;5052040;28;20192;-85
2022/08/28 21:32:09;;;;;;;19.73;17.87;;;17.10;99.90;;;;;;5051855;28;20657;-85
2022/08/28 21:34:36;;;;;;;19.93;17.90;;;17.00;99.90;;;;;;5052087;28;20208;-85
2022/08/28 21:37:03;;;;;;;20.00;18.03;;;17.00;99.90;;;;;;5038060;28;20569;-85
2022/08/28 21:39:30;;;;;;;19.33;17.47;;;16.90;99.90;;;;;;5051821;28;20197;-85
2022/08/28 21:41:57;;;;;;;19.20;17.33;;;16.90;99.90;;;;;;5051470;28;20212;-85
2022/08/28 21:44:24;;;;;;;20.57;18.70;;;16.80;99.90;;;;;;5051793;28;20661;-85
2022/08/28 21:46:53;;;;;;;21.63;20.07;;;16.80;99.90;;;;;;5051853;28;20197;-85
2022/08/28 21:49:21;;;;;;;19.87;18.37;;;16.80;99.90;;;;;;5037631;28;20200;-86
2022/08/28 21:51:48;;;;;;;17.80;16.27;;;16.70;99.90;;;;;;5051684;28;20207;-85
2022/08/28 21:54:15;;;;;;;18.37;16.83;;;16.60;99.90;;;;;;5051873;28;20189;-85
2022/08/28 21:56:42;;;;;;;14.37;12.90;;;16.60;99.90;;;;;;5051684;28;20642;-85
2022/08/28 21:59:09;;;;;;;17.83;16.30;;;16.60;99.90;;;;;;5052012;28;20193;-85
2022/08/28 22:01:36;;;;;;;18.67;17.20;;;16.60;1.00;;;;;;5051900;28;20274;-86
2022/08/28 22:04:05;;;;;;;23.90;22.23;;;16.50;99.90;;;;;;5051659;28;20259;-86
2022/08/28 22:06:33;;;;;;;22.57;20.93;;;16.50;1.00;;;;;;5051900;28;20624;-85
2022/08/28 22:09:01;;;;;;;28.03;26.20;;;16.40;1.00;;;;;;5051406;28;20196;-86
2022/08/28 22:11:28;;;;;;;23.33;21.70;;;16.40;1.00;;;;;;5051420;28;20197;-85
2022/08/28 22:13:56;;;;;;;32.67;30.60;;;16.40;1.00;;;;;;5051362;28;20202;-85
2022/08/28 22:16:24;;;;;;;26.97;25.17;;;16.30;1.00;;;;;;5051425;28;20200;-86
2022/08/28 22:18:51;;;;;;;17.37;15.83;;;16.30;1.00;;;;;;5051303;28;20238;-85
2022/08/28 22:24:07;;;;;;;31.93;29.83;;;16.20;1.00;;;;;;5051620;28;20319;-86
2022/08/28 22:26:35;;;;;;;28.37;26.53;;;16.20;1.00;;;;;;5051216;28;20597;-85
2022/08/28 22:29:02;;;;;;;30.30;28.33;;;16.10;1.00;;;;;;5051634;28;20577;-85
2022/08/28 22:31:29;;;;;;;27.10;25.30;;;16.10;1.00;;;;;;5051162;28;20201;-85